createdAt,value
2023-10-19T00:00:57.934Z,98565.41
2023-10-19T00:03:28.170Z,98561.94
2023-10-19T00:05:59.727Z,98562.06
2023-10-19T00:08:37.630Z,98550.31
2023-10-19T00:11:06.219Z,98542.53
2023-10-19T00:13:36.883Z,98551.38
2023-10-19T00:16:12.780Z,98539.09
2023-10-19T00:18:44.079Z,98533.75
2023-10-19T00:21:20.774Z,98532.72
2023-10-19T00:23:51.735Z,98540.41
2023-10-19T00:26:21.146Z,98535.19
2023-10-19T00:29:00.750Z,98531.66
2023-10-19T00:31:30.080Z,98537.84
2023-10-19T00:34:02.104Z,98533.38
2023-10-19T00:36:32.244Z,98536.06
2023-10-19T00:39:06.373Z,98539.56
2023-10-19T00:41:35.611Z,98535.00
2023-10-19T00:44:08.485Z,98530.59
2023-10-19T00:46:40.412Z,98536.81
2023-10-19T00:49:10.715Z,98524.41
2023-10-19T00:51:52.247Z,98530.72
2023-10-19T00:54:33.186Z,98525.38
2023-10-19T00:57:07.262Z,98526.88
2023-10-19T00:59:40.022Z,98516.13
2023-10-19T01:02:19.052Z,98522.28
2023-10-19T01:04:51.956Z,98515.16
2023-10-19T01:07:24.187Z,98509.72
2023-10-19T01:09:57.841Z,98514.00
2023-10-19T01:12:34.862Z,98510.47
2023-10-19T01:15:14.141Z,98502.47
2023-10-19T01:17:45.063Z,98508.56
2023-10-19T01:20:22.285Z,98501.22
2023-10-19T01:23:07.781Z,98493.31
2023-10-19T01:25:47.367Z,98500.28
2023-10-19T01:28:18.222Z,98494.09
2023-10-19T01:30:52.681Z,98501.31
2023-10-19T01:33:21.813Z,98493.97
2023-10-19T01:36:07.581Z,98488.63
2023-10-19T01:38:37.155Z,98484.16
2023-10-19T01:41:08.841Z,98470.63
2023-10-19T01:43:41.588Z,98476.81
2023-10-19T01:46:12.990Z,98469.66
2023-10-19T01:48:43.198Z,98474.03
2023-10-19T01:51:12.196Z,98475.84
2023-10-19T01:53:45.230Z,98467.75
2023-10-19T01:56:15.411Z,98467.75
2023-10-19T01:58:44.399Z,98461.47
2023-10-19T02:01:21.507Z,98473.63
2023-10-19T02:03:54.457Z,98461.16
2023-10-19T02:06:27.433Z,98465.84
2023-10-19T02:08:57.933Z,98458.81
2023-10-19T02:11:26.680Z,98448.22
2023-10-19T02:13:56.867Z,98451.63
2023-10-19T02:16:24.424Z,98449.72
2023-10-19T02:18:53.355Z,98441.72
2023-10-19T02:21:23.528Z,98443.53
2023-10-19T02:23:52.662Z,98442.66
2023-10-19T02:26:24.130Z,98429.31
2023-10-19T02:28:53.280Z,98434.53
2023-10-19T02:31:22.815Z,98422.06
2023-10-19T02:33:53.230Z,98428.19
2023-10-19T02:36:21.565Z,98422.94
2023-10-19T02:38:53.404Z,98420.66
2023-10-19T02:41:22.072Z,98420.97
2023-10-19T02:44:02.144Z,98424.59
2023-10-19T02:49:59.236Z,98423.28
2023-10-19T02:52:28.551Z,98416.22
2023-10-19T02:55:00.863Z,98412.69
2023-10-19T02:57:30.115Z,98407.56
2023-10-19T02:59:59.350Z,98422.75
2023-10-19T03:02:27.730Z,98428.72
2023-10-19T03:04:56.154Z,98422.63
2023-10-19T03:07:25.721Z,98424.44
2023-10-19T03:09:54.786Z,98427.09
2023-10-19T03:12:26.733Z,98421.78
2023-10-19T03:14:53.975Z,98425.09
2023-10-19T03:17:23.445Z,98427.56
2023-10-19T03:19:50.664Z,98420.50
2023-10-19T03:22:20.646Z,98416.78
2023-10-19T03:24:59.429Z,98417.75
2023-10-19T03:27:27.774Z,98411.44
2023-10-19T03:29:56.768Z,98409.56
2023-10-19T03:32:28.767Z,98406.03
2023-10-19T03:34:58.519Z,98394.50
2023-10-19T03:37:30.693Z,98395.16
2023-10-19T03:40:03.519Z,98383.69
2023-10-19T03:42:33.875Z,98387.53
2023-10-19T03:45:06.557Z,98385.94
2023-10-19T03:47:36.197Z,98377.16
2023-10-19T03:50:08.089Z,98373.84
2023-10-19T03:52:38.793Z,98370.53
2023-10-19T03:55:16.271Z,98371.47
2023-10-19T03:57:48.108Z,98368.72
2023-10-19T04:00:19.638Z,98367.66
2023-10-19T04:02:48.353Z,98358.59
2023-10-19T04:05:21.634Z,98347.72
2023-10-19T04:07:51.475Z,98352.00
2023-10-19T04:10:31.903Z,98350.06
2023-10-19T04:13:01.706Z,98350.06
2023-10-19T04:15:34.694Z,98354.34
2023-10-19T04:18:03.486Z,98357.47
2023-10-19T04:20:43.052Z,98351.06
2023-10-19T04:23:17.003Z,98350.88
2023-10-19T04:25:48.121Z,98356.94
2023-10-19T04:28:17.095Z,98355.78
2023-10-19T04:30:45.205Z,98355.88
2023-10-19T04:33:13.836Z,98361.00
2023-10-19T04:35:42.642Z,98350.53
2023-10-19T04:38:11.200Z,98355.59
2023-10-19T04:40:39.337Z,98340.44
2023-10-19T04:43:08.922Z,98348.31
2023-10-19T04:45:41.662Z,98341.16
2023-10-19T04:48:11.282Z,98351.56
2023-10-19T04:50:41.108Z,98348.25
2023-10-19T04:53:09.309Z,98352.75
2023-10-19T04:55:37.421Z,98346.50
2023-10-19T04:58:07.025Z,98343.84
2023-10-19T05:00:36.518Z,98342.94
2023-10-19T05:03:04.976Z,98330.41
2023-10-19T05:05:33.162Z,98332.00
2023-10-19T05:08:01.270Z,98333.25
2023-10-19T05:10:30.219Z,98341.16
2023-10-19T05:13:00.012Z,98336.59
2023-10-19T05:15:28.159Z,98334.97
2023-10-19T05:17:57.879Z,98334.78
2023-10-19T05:20:26.864Z,98328.59
2023-10-19T05:22:54.968Z,98335.44
2023-10-19T05:25:24.790Z,98329.47
2023-10-19T05:27:53.111Z,98336.50
2023-10-19T05:30:23.754Z,98326.66
2023-10-19T05:32:53.459Z,98331.91
2023-10-19T05:35:27.420Z,98330.09
2023-10-19T05:37:56.656Z,98324.66
2023-10-19T05:40:30.335Z,98335.03
2023-10-19T05:43:01.934Z,98333.41
2023-10-19T05:45:30.663Z,98315.25
2023-10-19T05:47:59.418Z,98327.84
2023-10-19T05:50:29.744Z,98331.38
2023-10-19T05:52:57.970Z,98341.00
2023-10-19T05:55:26.984Z,98333.09
2023-10-19T05:57:55.124Z,98335.78
2023-10-19T06:00:26.987Z,98307.63
2023-10-19T06:02:55.733Z,98345.19
2023-10-19T06:05:24.734Z,98336.22
2023-10-19T06:07:54.260Z,98341.66
2023-10-19T06:10:23.490Z,98348.72
2023-10-19T06:12:53.602Z,98350.97
2023-10-19T06:15:24.780Z,98361.31
2023-10-19T06:17:54.128Z,98354.91
2023-10-19T06:20:25.775Z,98358.53
2023-10-19T06:22:57.332Z,98352.22
2023-10-19T06:25:26.849Z,98359.91
2023-10-19T06:27:58.218Z,98355.97
2023-10-19T06:30:27.581Z,98358.44
2023-10-19T06:32:58.309Z,98350.22
2023-10-19T06:35:26.655Z,98357.91
2023-10-19T06:37:57.223Z,98345.06
2023-10-19T06:40:26.461Z,98341.84
2023-10-19T06:42:57.813Z,98339.56
2023-10-19T06:45:27.716Z,98341.59
2023-10-19T06:47:55.957Z,98344.91
2023-10-19T06:50:25.505Z,98333.91
2023-10-19T06:52:55.762Z,98339.41
2023-10-19T06:55:25.506Z,98342.75
2023-10-19T06:57:56.503Z,98350.97
2023-10-19T07:00:28.227Z,98346.06
2023-10-19T07:02:58.720Z,98342.00
2023-10-19T07:05:26.841Z,98336.72
2023-10-19T07:07:57.488Z,98335.28
2023-10-19T07:10:28.344Z,98337.69
2023-10-19T07:12:59.067Z,98338.31
2023-10-19T07:15:28.241Z,98337.22
2023-10-19T07:17:56.487Z,98340.78
2023-10-19T07:20:28.254Z,98335.41
2023-10-19T07:22:57.466Z,98320.38
2023-10-19T07:25:27.881Z,98343.09
2023-10-19T07:27:56.088Z,98345.47
2023-10-19T07:30:27.629Z,98345.31
2023-10-19T07:32:59.868Z,98340.19
2023-10-19T07:35:28.790Z,98340.88
2023-10-19T07:37:58.130Z,98332.88
2023-10-19T07:40:28.976Z,98329.19
2023-10-19T07:42:57.172Z,98328.38
2023-10-19T07:45:26.778Z,98317.78
2023-10-19T07:50:59.208Z,98329.00
2023-10-19T07:53:27.413Z,98318.84
2023-10-19T07:55:55.475Z,98328.88
2023-10-19T07:58:23.631Z,98332.69
2023-10-19T08:00:53.597Z,98335.09
2023-10-19T08:03:22.941Z,98337.22
2023-10-19T08:05:51.288Z,98337.59
2023-10-19T08:08:20.751Z,98343.94
2023-10-19T08:10:49.186Z,98335.56
2023-10-19T08:13:17.351Z,98334.09
2023-10-19T08:15:46.063Z,98327.91
2023-10-19T08:18:16.113Z,98326.25
2023-10-19T08:20:46.360Z,98325.50
2023-10-19T08:23:17.696Z,98325.66
2023-10-19T08:25:56.119Z,98322.78
2023-10-19T08:28:25.422Z,98326.19
2023-10-19T08:31:01.630Z,98334.63
2023-10-19T08:33:32.036Z,98326.09
2023-10-19T08:36:01.487Z,98328.41
2023-10-19T08:38:30.633Z,98327.22
2023-10-19T08:41:01.191Z,98327.81
2023-10-19T08:43:29.926Z,98323.72
2023-10-19T08:45:58.362Z,98325.38
2023-10-19T08:48:26.942Z,98319.66
2023-10-19T08:50:57.092Z,98315.81
2023-10-19T08:53:27.000Z,98314.75
2023-10-19T08:55:56.891Z,98305.53
2023-10-19T08:58:28.665Z,98321.75
2023-10-19T09:00:57.469Z,98312.00
2023-10-19T09:03:27.853Z,98300.75
2023-10-19T09:05:57.540Z,98312.78
2023-10-19T09:08:26.513Z,98300.72
2023-10-19T09:10:56.205Z,98303.59
2023-10-19T09:13:26.521Z,98314.28
2023-10-19T09:15:56.668Z,98312.94
2023-10-19T09:18:29.006Z,98308.69
2023-10-19T09:21:04.007Z,98298.72
2023-10-19T09:23:32.692Z,98315.59
2023-10-19T09:26:04.060Z,98304.44
2023-10-19T09:28:36.944Z,98297.94
2023-10-19T09:31:06.592Z,98293.16
2023-10-19T09:33:36.195Z,98294.13
2023-10-19T09:36:14.126Z,98296.47
2023-10-19T09:38:46.010Z,98289.00
2023-10-19T09:41:16.065Z,98281.66
2023-10-19T09:43:47.268Z,98273.63
2023-10-19T09:46:23.521Z,98278.78
2023-10-19T09:48:52.814Z,98287.38
2023-10-19T09:51:22.964Z,98286.81
2023-10-19T09:53:55.990Z,98272.91
2023-10-19T09:56:28.168Z,98277.72
2023-10-19T09:59:01.662Z,98275.56
2023-10-19T10:01:29.885Z,98269.25
2023-10-19T10:04:01.070Z,98274.47
2023-10-19T10:06:30.985Z,98277.75
2023-10-19T10:09:01.732Z,98269.19
2023-10-19T10:11:30.198Z,98273.84
2023-10-19T10:14:01.265Z,98281.22
2023-10-19T10:16:31.211Z,98270.78
2023-10-19T10:19:01.481Z,98268.81
2023-10-19T10:21:31.016Z,98273.28
2023-10-19T10:24:00.589Z,98277.69
2023-10-19T10:26:31.899Z,98264.97
2023-10-19T10:29:15.787Z,98266.41
2023-10-19T10:31:45.738Z,98266.34
2023-10-19T10:34:34.938Z,98262.34
2023-10-19T10:37:05.247Z,98256.00
2023-10-19T10:39:33.780Z,98252.66
2023-10-19T10:42:04.084Z,98256.88
2023-10-19T10:44:41.323Z,98255.81
2023-10-19T10:47:11.140Z,98252.94
2023-10-19T10:49:52.809Z,98249.53
2023-10-19T10:52:31.297Z,98253.41
2023-10-19T10:55:00.439Z,98253.94
2023-10-19T10:57:35.517Z,98253.06
2023-10-19T11:00:08.608Z,98244.09
2023-10-19T11:02:36.983Z,98245.19
2023-10-19T11:05:05.912Z,98241.63
2023-10-19T11:07:34.202Z,98218.00
2023-10-19T11:10:03.018Z,98240.41
2023-10-19T11:12:31.729Z,98229.75
2023-10-19T11:15:01.189Z,98234.28
2023-10-19T11:17:32.868Z,98230.31
2023-10-19T11:20:01.595Z,98230.44
2023-10-19T11:22:30.336Z,98225.22
2023-10-19T11:25:23.256Z,98221.41
2023-10-19T11:27:51.436Z,98210.47
2023-10-19T11:30:27.264Z,98215.44
2023-10-19T11:32:58.182Z,98212.16
2023-10-19T11:35:28.712Z,98216.00
2023-10-19T11:38:00.217Z,98208.78
2023-10-19T11:40:30.315Z,98203.69
2023-10-19T11:42:59.909Z,98202.56
2023-10-19T11:45:30.029Z,98200.44
2023-10-19T11:47:58.771Z,98200.72
2023-10-19T11:50:26.936Z,98205.81
2023-10-19T11:52:55.198Z,98195.88
2023-10-19T11:55:23.413Z,98195.88
2023-10-19T11:57:53.521Z,98189.97
2023-10-19T12:00:26.144Z,98188.81
2023-10-19T12:02:54.522Z,98181.88
2023-10-19T12:05:22.817Z,98178.31
2023-10-19T12:07:51.078Z,98176.38
2023-10-19T12:10:21.497Z,98180.91
2023-10-19T12:13:00.794Z,98181.03
2023-10-19T12:15:33.498Z,98167.56
2023-10-19T12:18:02.903Z,98181.00
2023-10-19T12:20:32.890Z,98178.03
2023-10-19T12:23:02.016Z,98183.97
2023-10-19T12:25:50.102Z,98187.63
2023-10-19T12:28:22.066Z,98188.47
2023-10-19T12:30:51.966Z,98191.88
2023-10-19T12:33:21.017Z,98193.13
2023-10-19T12:35:55.087Z,98191.66
2023-10-19T12:38:23.410Z,98194.53
2023-10-19T12:40:52.825Z,98152.16
2023-10-19T12:43:23.113Z,98182.78
2023-10-19T12:45:54.933Z,98154.44
2023-10-19T12:48:23.201Z,98169.75
2023-10-19T12:51:59.197Z,98159.81
2023-10-19T12:54:29.179Z,98153.16
2023-10-19T12:56:57.357Z,98165.66
2023-10-19T12:59:25.495Z,98169.50
2023-10-19T13:01:56.333Z,98167.81
2023-10-19T13:04:25.441Z,98178.00
2023-10-19T13:06:58.549Z,98163.63
2023-10-19T13:09:33.864Z,98180.16
2023-10-19T13:12:02.466Z,98177.28
2023-10-19T13:14:30.745Z,98170.63
2023-10-19T13:17:00.276Z,98168.56
2023-10-19T13:19:28.985Z,98168.53
2023-10-19T13:21:59.626Z,98169.28
2023-10-19T13:24:29.261Z,98154.06
2023-10-19T13:26:57.544Z,98162.44
2023-10-19T13:29:27.833Z,98151.63
2023-10-19T13:31:57.614Z,98156.34
2023-10-19T13:34:25.827Z,98154.78
2023-10-19T13:36:53.859Z,98153.41
2023-10-19T13:39:22.562Z,98154.16
2023-10-19T13:41:53.639Z,98138.94
2023-10-19T13:44:21.814Z,98143.16
2023-10-19T13:46:52.419Z,98132.28
2023-10-19T13:49:20.651Z,98126.47
2023-10-19T13:51:48.766Z,98113.00
2023-10-19T13:54:18.456Z,98126.19
2023-10-19T13:56:47.589Z,98129.56
2023-10-19T13:59:17.122Z,98123.06
2023-10-19T14:01:45.508Z,98113.91
2023-10-19T14:04:15.613Z,98109.38
2023-10-19T14:06:44.784Z,98107.81
2023-10-19T14:09:13.958Z,98106.09
2023-10-19T14:11:42.162Z,98102.13
2023-10-19T14:14:12.190Z,98095.78
2023-10-19T14:16:41.922Z,98086.59
2023-10-19T14:19:10.062Z,98075.28
2023-10-19T14:21:41.559Z,98062.88
2023-10-19T14:24:10.702Z,98048.03
2023-10-19T14:26:39.737Z,98053.09
2023-10-19T14:29:08.010Z,98041.94
2023-10-19T14:31:36.287Z,98027.97
2023-10-19T14:34:06.226Z,98014.25
2023-10-19T14:36:34.468Z,98001.56
2023-10-19T14:39:02.492Z,98001.94
2023-10-19T14:41:31.225Z,97992.63
2023-10-19T14:44:00.806Z,97978.63
2023-10-19T14:46:30.532Z,97972.03
2023-10-19T14:48:58.825Z,97958.00
2023-10-19T14:51:28.405Z,97965.91
2023-10-19T14:53:56.608Z,97979.53
2023-10-19T14:56:24.783Z,97979.97
2023-10-19T14:58:55.928Z,97972.75
2023-10-19T15:01:27.174Z,97979.97
2023-10-19T15:03:55.727Z,97932.03
2023-10-19T15:06:23.973Z,97951.72
2023-10-19T15:08:53.735Z,97930.81
2023-10-19T15:11:23.258Z,97932.47
2023-10-19T15:13:52.586Z,97939.53
2023-10-19T15:16:21.879Z,97939.41
2023-10-19T15:18:50.235Z,97940.53
2023-10-19T15:21:18.562Z,97931.09
2023-10-19T15:23:48.009Z,97930.22
2023-10-19T15:26:21.028Z,97931.94
2023-10-19T15:28:49.772Z,97916.38
2023-10-19T15:31:18.310Z,97890.22
2023-10-19T15:33:47.561Z,97888.81
2023-10-19T15:36:15.770Z,97885.97
2023-10-19T15:38:45.081Z,97897.84
2023-10-19T15:41:16.861Z,97896.00
2023-10-19T15:43:46.679Z,97885.53
2023-10-19T15:46:17.047Z,97871.41
2023-10-19T15:48:45.574Z,97875.22
2023-10-19T15:51:13.987Z,97882.31
2023-10-19T15:53:42.576Z,97889.94
2023-10-19T15:56:10.809Z,97887.09
2023-10-19T15:58:39.280Z,97897.53
2023-10-19T16:01:12.524Z,97903.34
2023-10-19T16:03:42.146Z,97909.13
2023-10-19T16:06:10.901Z,97906.16
2023-10-19T16:08:39.181Z,97922.66
2023-10-19T16:11:07.976Z,97915.03
2023-10-19T16:13:36.826Z,97899.78
2023-10-19T16:16:05.269Z,97907.41
2023-10-19T16:18:34.787Z,97901.06
2023-10-19T16:21:06.794Z,97909.50
2023-10-19T16:23:35.141Z,97892.44
2023-10-19T16:26:04.864Z,97892.44
2023-10-19T16:28:33.956Z,97890.72
2023-10-19T16:31:05.567Z,97901.59
2023-10-19T16:33:36.633Z,97896.09
2023-10-19T16:36:05.442Z,97892.53
2023-10-19T16:38:33.623Z,97901.59
2023-10-19T16:41:02.164Z,97904.00
2023-10-19T16:43:30.349Z,97906.44
2023-10-19T16:46:00.912Z,97899.78
2023-10-19T16:48:29.149Z,97913.63
2023-10-19T16:51:02.503Z,97918.00
2023-10-19T16:53:30.922Z,97909.38
2023-10-19T16:56:02.352Z,97899.91
2023-10-19T16:58:31.167Z,97906.22
2023-10-19T17:01:01.016Z,97913.31
2023-10-19T17:03:30.413Z,97910.88
2023-10-19T17:06:00.031Z,97908.22
2023-10-19T17:08:28.197Z,97921.03
2023-10-19T17:10:56.347Z,97925.88
2023-10-19T17:13:24.638Z,97935.31
2023-10-19T17:15:53.814Z,97930.22
2023-10-19T17:18:22.093Z,97921.44
2023-10-19T17:20:50.234Z,97922.44
2023-10-19T17:23:20.527Z,97933.16
2023-10-19T17:25:48.841Z,97938.84
2023-10-19T17:28:17.552Z,97936.16
2023-10-19T17:30:47.162Z,97924.44
2023-10-19T17:33:15.486Z,97933.91
2023-10-19T17:35:43.632Z,97916.53
2023-10-19T17:38:13.213Z,97911.75
2023-10-19T17:40:42.898Z,97908.94
2023-10-19T17:43:12.718Z,97908.22
2023-10-19T17:45:46.714Z,97903.97
2023-10-19T17:48:15.234Z,97904.84
2023-10-19T17:53:00.122Z,97910.88
2023-10-19T17:55:28.522Z,97889.13
2023-10-19T17:57:56.778Z,97913.03
2023-10-19T18:00:26.047Z,97909.63
2023-10-19T18:02:55.022Z,97915.56
2023-10-19T18:05:25.129Z,97914.72
2023-10-19T18:07:54.024Z,97878.81
2023-10-19T18:10:29.775Z,97900.72
2023-10-19T18:12:58.008Z,97896.34
2023-10-19T18:15:28.347Z,97886.47
2023-10-19T18:17:56.564Z,97872.19
2023-10-19T18:20:25.006Z,97875.75
2023-10-19T18:22:53.202Z,97866.97
2023-10-19T18:25:24.848Z,97860.47
2023-10-19T18:27:54.338Z,97856.97
2023-10-19T18:30:22.558Z,97848.91
2023-10-19T18:32:51.767Z,97866.13
2023-10-19T18:35:21.190Z,97875.00
2023-10-19T18:37:50.595Z,97873.31
2023-10-19T18:40:21.449Z,97851.72
2023-10-19T18:42:49.641Z,97845.38
2023-10-19T18:45:19.707Z,97840.00
2023-10-19T18:47:48.118Z,97837.16
2023-10-19T18:50:32.783Z,97827.28
2023-10-19T18:53:04.528Z,97824.47
2023-10-19T18:55:33.218Z,97822.50
2023-10-19T18:58:03.673Z,97814.72
2023-10-19T19:00:34.778Z,97821.22
2023-10-19T19:03:03.066Z,97823.47
2023-10-19T19:05:32.209Z,97824.31
2023-10-19T19:08:00.469Z,97816.56
2023-10-19T19:10:34.141Z,97803.25
2023-10-19T19:13:03.131Z,97808.06
2023-10-19T19:15:31.250Z,97802.69
2023-10-19T19:18:00.822Z,97795.66
2023-10-19T19:20:29.325Z,97793.81
2023-10-19T19:22:58.210Z,97797.59
2023-10-19T19:25:26.628Z,97799.56
2023-10-19T19:27:55.068Z,97798.72
2023-10-19T19:30:23.263Z,97800.84
2023-10-19T19:32:51.789Z,97813.53
2023-10-19T19:35:21.478Z,97816.22
2023-10-19T19:37:49.571Z,97816.44
2023-10-19T19:40:19.105Z,97804.91
2023-10-19T19:42:47.299Z,97816.59
2023-10-19T19:45:16.533Z,97811.09
2023-10-19T19:47:46.511Z,97793.91
2023-10-19T19:50:15.834Z,97800.00
2023-10-19T19:52:45.813Z,97799.56
2023-10-19T19:55:14.722Z,97803.25
2023-10-19T19:57:43.856Z,97793.22
2023-10-19T20:00:16.889Z,97795.78
2023-10-19T20:02:47.910Z,97800.03
2023-10-19T20:05:17.836Z,97804.53
2023-10-19T20:07:47.654Z,97806.38
2023-10-19T20:10:16.580Z,97807.38
2023-10-19T20:12:45.927Z,97820.78
2023-10-19T20:15:15.770Z,97812.75
2023-10-19T20:17:44.898Z,97810.75
2023-10-19T20:20:13.986Z,97801.00
2023-10-19T20:22:43.729Z,97796.38
2023-10-19T20:25:14.177Z,97784.91
2023-10-19T20:27:43.125Z,97793.69
2023-10-19T20:30:14.064Z,97791.13
2023-10-19T20:32:42.987Z,97786.88
2023-10-19T20:35:12.112Z,97758.22
2023-10-19T20:37:40.457Z,97766.84
2023-10-19T20:40:10.877Z,97746.38
2023-10-19T20:42:44.409Z,97746.38
2023-10-19T20:45:13.156Z,97756.25
2023-10-19T20:47:42.888Z,97756.13
2023-10-19T20:50:11.967Z,97752.59
2023-10-19T20:52:40.717Z,97747.63
2023-10-19T20:55:10.415Z,97758.22
2023-10-19T20:57:40.150Z,97763.44
2023-10-19T21:00:10.553Z,97760.75
2023-10-19T21:02:38.696Z,97754.69
2023-10-19T21:05:07.478Z,97748.34
2023-10-19T21:07:35.701Z,97746.50
2023-10-19T21:10:06.356Z,97730.41
2023-10-19T21:12:34.536Z,97725.03
2023-10-19T21:15:04.196Z,97682.09
2023-10-19T21:17:33.161Z,97707.84
2023-10-19T21:20:01.526Z,97708.81
2023-10-19T21:22:29.782Z,97702.59
2023-10-19T21:24:58.008Z,97688.47
2023-10-19T21:27:26.168Z,97678.59
2023-10-19T21:29:54.273Z,97669.53
2023-10-19T21:32:23.817Z,97667.72
2023-10-19T21:34:52.161Z,97673.22
2023-10-19T21:37:20.693Z,97680.56
2023-10-19T21:39:49.388Z,97687.91
2023-10-19T21:42:17.569Z,97706.84
2023-10-19T21:44:47.139Z,97704.97
2023-10-19T21:47:17.252Z,97682.69
2023-10-19T21:49:49.916Z,97657.69
2023-10-19T21:52:21.660Z,97637.22
2023-10-19T21:54:49.996Z,97625.63
2023-10-19T21:57:18.855Z,97615.19
2023-10-19T21:59:47.409Z,97615.34
2023-10-19T22:02:17.268Z,97604.06
2023-10-19T22:04:47.093Z,97620.72
2023-10-19T22:07:15.651Z,97623.41
2023-10-19T22:09:44.051Z,97614.50
2023-10-19T22:12:12.331Z,97612.81
2023-10-19T22:14:41.246Z,97615.63
2023-10-19T22:17:09.382Z,97613.09
2023-10-19T22:19:37.527Z,97608.72
2023-10-19T22:22:07.764Z,97600.78
2023-10-19T22:24:36.035Z,97592.91
2023-10-19T22:27:04.408Z,97594.00
2023-10-19T22:29:34.056Z,97584.13
2023-10-19T22:32:02.601Z,97581.59
2023-10-19T22:34:31.000Z,97578.91
2023-10-19T22:36:59.397Z,97578.03
2023-10-19T22:39:29.421Z,97558.59
2023-10-19T22:41:57.578Z,97563.94
2023-10-19T22:44:25.905Z,97560.41
2023-10-19T22:46:54.138Z,97561.41
2023-10-19T22:49:22.369Z,97550.97
2023-10-19T22:54:01.386Z,97542.06
2023-10-19T22:56:29.470Z,97536.72
2023-10-19T22:58:58.096Z,97519.81
2023-10-19T23:01:26.733Z,97513.72
2023-10-19T23:03:54.816Z,97525.59
2023-10-19T23:06:26.547Z,97527.72
2023-10-19T23:08:55.458Z,97524.19
2023-10-19T23:11:29.986Z,97515.41
2023-10-19T23:14:00.819Z,97520.94
2023-10-19T23:16:33.171Z,97519.69
2023-10-19T23:19:01.618Z,97505.84
2023-10-19T23:21:33.977Z,97512.47
2023-10-19T23:24:02.529Z,97505.56
2023-10-19T23:26:32.881Z,97512.63
2023-10-19T23:29:05.919Z,97517.84
2023-10-19T23:31:39.338Z,97511.50
2023-10-19T23:34:07.744Z,97508.94
2023-10-19T23:36:36.912Z,97506.13
2023-10-19T23:39:08.192Z,97503.19
2023-10-19T23:41:37.881Z,97499.22
2023-10-19T23:44:07.234Z,97504.72
2023-10-19T23:46:35.584Z,97500.63
2023-10-19T23:49:05.518Z,97501.91
2023-10-19T23:51:33.750Z,97487.09
2023-10-19T23:54:01.879Z,97486.69
2023-10-19T23:56:30.558Z,97482.16
2023-10-19T23:59:00.387Z,97483.84
